Jobs Corners, Pennsylvania
Current Conditions -  °F | °C
As of 1:53 PM on Thursday 18 Dec 2014 (Local Time) from KELM Reporting Station
Overcast Overcast  
Wind Chill: 26°   Ceiling: 1900
Heat Index: 34°   Visibility: 10mi
Dew Point: 28°   Wind: 10mph
Humidity: 79%   Direction: 280°W
Pressure: 30"   Gusts: NA
Location:  41.9565°N, 76.9857°W
Report Text: KELM 181853Z 28009KT 10SM OVC019 01/M02 A3000 RMK AO2 SLP167 T00111022
Loading
Personal Weather Stations






























Interactive Weather Map New forecast layout! Learn more

10-Day Weather Forecast

Advertisements
Track Severe Weather on mobile